Decoded Metar for K96D ( in ) (IATA:) | Meteo·Mobile Aviation Weather
aviador You're here:

K96D Decoded Metar

in
Report Time2018-09-21 11:55:00
UTC Time2018-09-21 11:57:50
Flight Rules vfr VFR
Wind310° at 09 kt
W.Rank310° ranks 3
Current wind is above 310° avg. (8.5)
Visibility9999 m
Phenomena:N/A
Clouds:N/A
CeilingNone
Temp07°C
Dew Point07°C (100% RH)
AAT3.1°C
QNH1018 hPa
Raw Report
METAR K96D 211155Z AUTO 31009KT 10SM CLR 07/07 A3006 RMK AO2=

Extra information for K96D:More info

Social comments